Time;durP1;ratioP1;P1;durP2;ratioP2;P2;SDS_P1;SDS_P2;PMS_P1;PMS_P2;Temp;Humidity;BMP_temperature;BMP_pressure;BME280_temperature;BME280_humidity;BME280_pressure;Samples;Min_cycle;Max_cycle;Signal;HPM_P1;HPM_P2
2024/01/19 00:02:08;;;;;;;;;;;;;;;;;;5025601;28;20396;-77
2024/01/19 00:04:33;;;;;;;;;;;;;;;;;;5026654;28;20581;-78
2024/01/19 00:06:58;;;;;;;;;;;;;;;;;;5022181;28;20475;-76
2024/01/19 00:09:24;;;;;;;;;;;;;;;;;;5023417;28;19920;-77
2024/01/19 00:11:50;;;;;;;;;;;;;;;;;;5025352;28;19921;-76
2024/01/19 00:14:15;;;;;;;;;;;;;;;;;;5025069;28;19921;-74
2024/01/19 00:16:41;;;;;;;;;;;;;;;;;;5005565;28;19920;-77
2024/01/19 00:19:06;;;;;;;;;;;;;;;;;;5022092;28;19928;-77
2024/01/19 00:21:31;;;;;;;;;;;;;;;;;;5038458;28;19917;-75
2024/01/19 00:23:57;;;;;;;;;;;;;;;;;;5025019;28;19920;-76
2024/01/19 00:26:22;;;;;;;;;;;;;;;;;;5020751;28;19916;-76
2024/01/19 00:28:50;;;;;;;;;;;;;;;;;;5024557;28;19921;-74
2024/01/19 00:31:16;;;;;;;;;;;;;;;;;;5024226;28;20422;-77
2024/01/19 00:33:41;;;;;;;;;;;;;;;;;;5024066;28;19917;-77
2024/01/19 00:36:07;;;;;;;;;;;;;;;;;;5025450;28;19932;-74
2024/01/19 00:38:32;;;;;;;;;;;;;;;;;;5024690;28;19924;-73
2024/01/19 00:41:00;;;;;;;;;;;;;;;;;;5024597;28;19913;-73
2024/01/19 00:43:25;;;;;;;;;;;;;;;;;;5023827;28;19916;-76
2024/01/19 00:45:50;;;;;;;;;;;;;;;;;;5025239;28;19943;-77
2024/01/19 00:48:16;;;;;;;;;;;;;;;;;;5022055;28;20399;-74
2024/01/19 00:50:41;;;;;;;;;;;;;;;;;;5022992;28;19921;-77
2024/01/19 00:53:06;;;;;;;;;;;;;;;;;;5023142;28;20052;-74
2024/01/19 00:55:32;;;;;;;;;;;;;;;;;;5040141;28;19940;-76
2024/01/19 00:57:57;;;;;;;;;;;;;;;;;;5025261;28;20011;-78
2024/01/19 01:00:28;;;;;;;;;;;;;;;;;;5023613;28;19921;-74
2024/01/19 01:02:57;;;;;;;;;;;;;;;;;;5021681;28;20569;-74
2024/01/19 01:05:22;;;;;;;;;;;;;;;;;;5005297;28;20644;-78
2024/01/19 01:07:47;;;;;;;;;;;;;;;;;;5022265;28;21460;-76
2024/01/19 01:10:13;;;;;;;;;;;;;;;;;;5022454;28;19925;-75
2024/01/19 01:12:38;;;;;;;;;;;;;;;;;;5040803;28;19917;-76
2024/01/19 01:15:04;;;;;;;;;;;;;;;;;;5020445;28;19932;-77
2024/01/19 01:17:29;;;;;;;;;;;;;;;;;;5054984;28;19986;-79
2024/01/19 01:19:54;;;;;;;;;;;;;;;;;;5016647;28;19921;-78
2024/01/19 01:22:20;;;;;;;;;;;;;;;;;;5023822;28;21408;-77
2024/01/19 01:27:39;;;;;;;;;;;;;;;;;;5020304;28;19921;-77
2024/01/19 01:30:07;;;;;;;;;;;;;;;;;;5020963;28;19939;-76
2024/01/19 01:32:33;;;;;;;;;;;;;;;;;;5037929;28;20593;-75
2024/01/19 01:34:58;;;;;;;;;;;;;;;;;;5021988;28;19997;-74
2024/01/19 01:37:24;;;;;;;;;;;;;;;;;;5022322;28;20096;-79
2024/01/19 01:39:49;;;;;;;;;;;;;;;;;;5014562;28;19921;-75
2024/01/19 01:42:14;;;;;;;;;;;;;;;;;;5053948;28;19927;-77
2024/01/19 01:44:40;;;;;;;;;;;;;;;;;;5002204;28;19917;-78
2024/01/19 01:47:05;;;;;;;;;;;;;;;;;;5003131;28;19917;-76
2024/01/19 01:49:30;;;;;;;;;;;;;;;;;;5021745;28;19921;-74
2024/01/19 01:51:56;;;;;;;;;;;;;;;;;;5021368;28;20370;-77
2024/01/19 01:54:21;;;;;;;;;;;;;;;;;;5020952;28;19936;-77
2024/01/19 01:56:46;;;;;;;;;;;;;;;;;;5003870;28;20653;-77
2024/01/19 01:59:11;;;;;;;;;;;;;;;;;;5004365;28;19916;-76
2024/01/19 02:04:53;;;;;;;;;;;;;;;;;;5021226;28;19978;-76
2024/01/19 02:07:18;;;;;;;;;;;;;;;;;;5024011;28;19921;-75
2024/01/19 02:09:47;;;;;;;;;;;;;;;;;;5018471;28;19929;-80
2024/01/19 02:12:13;;;;;;;;;;;;;;;;;;5020927;28;19917;-77
2024/01/19 02:14:38;;;;;;;;;;;;;;;;;;5053707;28;19932;-77
2024/01/19 02:17:04;;;;;;;;;;;;;;;;;;5017933;28;19920;-79
2024/01/19 02:19:29;;;;;;;;;;;;;;;;;;5039505;28;19916;-77
2024/01/19 02:21:54;;;;;;;;;;;;;;;;;;5005019;28;20023;-76
2024/01/19 02:24:20;;;;;;;;;;;;;;;;;;5021273;28;20396;-77
2024/01/19 02:26:45;;;;;;;;;;;;;;;;;;5034242;28;19921;-75
2024/01/19 02:29:10;;;;;;;;;;;;;;;;;;5020523;28;20347;-74
2024/01/19 02:31:36;;;;;;;;;;;;;;;;;;5020076;28;19920;-75
2024/01/19 02:34:01;;;;;;;;;;;;;;;;;;5022958;28;19925;-77
2024/01/19 02:36:27;;;;;;;;;;;;;;;;;;5002807;28;20456;-76
2024/01/19 02:38:52;;;;;;;;;;;;;;;;;;5023298;28;19928;-76
2024/01/19 02:41:17;;;;;;;;;;;;;;;;;;5037946;28;19925;-73
2024/01/19 02:43:43;;;;;;;;;;;;;;;;;;5022528;28;19940;-75
2024/01/19 02:46:08;;;;;;;;;;;;;;;;;;5023547;28;20045;-76
2024/01/19 02:48:33;;;;;;;;;;;;;;;;;;5036259;28;19921;-76
2024/01/19 02:50:58;;;;;;;;;;;;;;;;;;5004114;28;20493;-76
2024/01/19 02:53:24;;;;;;;;;;;;;;;;;;5035715;28;19921;-77
2024/01/19 02:55:49;;;;;;;;;;;;;;;;;;5037870;28;19964;-76
2024/01/19 02:58:14;;;;;;;;;;;;;;;;;;5021355;28;20022;-76
2024/01/19 03:00:40;;;;;;;;;;;;;;;;;;5022618;28;20369;-78
2024/01/19 03:03:05;;;;;;;;;;;;;;;;;;5021342;28;19928;-77
2024/01/19 03:05:31;;;;;;;;;;;;;;;;;;5019314;28;20101;-77
2024/01/19 03:07:56;;;;;;;;;;;;;;;;;;5024271;28;19924;-78
2024/01/19 03:10:21;;;;;;;;;;;;;;;;;;5019795;28;20570;-77
2024/01/19 03:12:46;;;;;;;;;;;;;;;;;;5018762;28;19921;-79
2024/01/19 03:15:12;;;;;;;;;;;;;;;;;;5018279;28;20373;-78
2024/01/19 03:17:37;;;;;;;;;;;;;;;;;;5023239;28;20019;-79
2024/01/19 03:20:02;;;;;;;;;;;;;;;;;;5021782;28;20300;-78
2024/01/19 03:22:28;;;;;;;;;;;;;;;;;;5036901;28;19917;-77
2024/01/19 03:24:53;;;;;;;;;;;;;;;;;;5023471;28;19920;-78
2024/01/19 03:27:18;;;;;;;;;;;;;;;;;;5022940;28;19920;-78
2024/01/19 03:29:44;;;;;;;;;;;;;;;;;;5016828;28;20471;-77
2024/01/19 03:32:09;;;;;;;;;;;;;;;;;;5036328;28;19923;-78
2024/01/19 03:34:35;;;;;;;;;;;;;;;;;;5023102;28;19921;-79
2024/01/19 03:37:03;;;;;;;;;;;;;;;;;;5022936;28;19917;-77
2024/01/19 03:39:28;;;;;;;;;;;;;;;;;;5037646;28;20004;-78
2024/01/19 03:41:53;;;;;;;;;;;;;;;;;;5021533;28;19971;-76
2024/01/19 03:44:19;;;;;;;;;;;;;;;;;;5035382;28;19920;-77
2024/01/19 03:46:44;;;;;;;;;;;;;;;;;;5017879;28;20017;-77
2024/01/19 03:49:09;;;;;;;;;;;;;;;;;;5038073;28;19924;-77
2024/01/19 03:51:35;;;;;;;;;;;;;;;;;;5025052;28;19920;-77
2024/01/19 03:54:00;;;;;;;;;;;;;;;;;;5024671;28;19927;-77
2024/01/19 03:56:25;;;;;;;;;;;;;;;;;;5023860;28;19916;-77
2024/01/19 03:58:51;;;;;;;;;;;;;;;;;;5022828;28;19921;-76
2024/01/19 04:01:16;;;;;;;;;;;;;;;;;;5024074;28;20023;-77
2024/01/19 04:03:44;;;;;;;;;;;;;;;;;;5024925;28;19917;-75
2024/01/19 04:06:12;;;;;;;;;;;;;;;;;;5038852;28;19917;-78
2024/01/19 04:08:37;;;;;;;;;;;;;;;;;;5024899;28;19923;-77
2024/01/19 04:11:02;;;;;;;;;;;;;;;;;;5025870;28;19924;-78
2024/01/19 04:13:28;;;;;;;;;;;;;;;;;;5041689;28;19913;-77
2024/01/19 04:15:53;;;;;;;;;;;;;;;;;;5038254;28;19925;-77
2024/01/19 04:18:18;;;;;;;;;;;;;;;;;;5026345;28;21508;-76
2024/01/19 04:20:44;;;;;;;;;;;;;;;;;;5006076;28;19920;-76
2024/01/19 04:23:09;;;;;;;;;;;;;;;;;;5023880;28;19917;-77
2024/01/19 04:25:34;;;;;;;;;;;;;;;;;;5003851;28;19921;-76
2024/01/19 04:28:00;;;;;;;;;;;;;;;;;;5042067;28;19917;-77
2024/01/19 04:30:25;;;;;;;;;;;;;;;;;;5003206;28;19921;-77
2024/01/19 04:32:50;;;;;;;;;;;;;;;;;;5025593;28;19932;-78
2024/01/19 04:35:15;;;;;;;;;;;;;;;;;;5023898;28;19921;-77
2024/01/19 04:37:41;;;;;;;;;;;;;;;;;;5004994;28;19916;-77
2024/01/19 04:40:06;;;;;;;;;;;;;;;;;;5025984;28;19916;-77
2024/01/19 04:42:32;;;;;;;;;;;;;;;;;;5016992;28;19925;-79
2024/01/19 04:44:57;;;;;;;;;;;;;;;;;;5023559;28;19940;-78
2024/01/19 04:47:23;;;;;;;;;;;;;;;;;;5023284;28;20361;-78
2024/01/19 04:49:48;;;;;;;;;;;;;;;;;;5026324;28;19917;-79
2024/01/19 04:52:13;;;;;;;;;;;;;;;;;;5025584;28;19929;-78
2024/01/19 04:54:38;;;;;;;;;;;;;;;;;;5024576;28;19936;-79
2024/01/19 04:57:04;;;;;;;;;;;;;;;;;;5024218;28;19920;-80
2024/01/19 04:59:29;;;;;;;;;;;;;;;;;;5039227;28;19939;-79
2024/01/19 05:01:54;;;;;;;;;;;;;;;;;;5038565;28;22212;-80
2024/01/19 05:04:20;;;;;;;;;;;;;;;;;;5040418;28;19960;-78
2024/01/19 05:06:45;;;;;;;;;;;;;;;;;;5023064;28;19916;-79
2024/01/19 05:09:10;;;;;;;;;;;;;;;;;;5025003;28;20652;-78
2024/01/19 05:11:36;;;;;;;;;;;;;;;;;;5040046;28;19944;-79
2024/01/19 05:14:03;;;;;;;;;;;;;;;;;;5007979;28;20279;-80
2024/01/19 05:16:28;;;;;;;;;;;;;;;;;;5023387;28;19916;-80
2024/01/19 05:18:53;;;;;;;;;;;;;;;;;;5022740;28;20530;-80
2024/01/19 05:21:19;;;;;;;;;;;;;;;;;;5025258;28;19943;-78
2024/01/19 05:23:44;;;;;;;;;;;;;;;;;;5024829;28;19968;-79
2024/01/19 05:26:09;;;;;;;;;;;;;;;;;;5022454;28;20026;-81
2024/01/19 05:28:36;;;;;;;;;;;;;;;;;;5021572;28;20364;-78
2024/01/19 05:31:01;;;;;;;;;;;;;;;;;;5021389;28;19925;-78
2024/01/19 05:33:26;;;;;;;;;;;;;;;;;;5019418;28;19921;-78
2024/01/19 05:35:53;;;;;;;;;;;;;;;;;;5022560;28;19917;-80
2024/01/19 05:38:18;;;;;;;;;;;;;;;;;;5018814;28;19916;-79
2024/01/19 05:40:44;;;;;;;;;;;;;;;;;;5018988;28;20157;-78
2024/01/19 05:43:09;;;;;;;;;;;;;;;;;;5023460;28;19941;-79
2024/01/19 05:45:34;;;;;;;;;;;;;;;;;;5024364;28;19955;-78
2024/01/19 05:50:50;;;;;;;;;;;;;;;;;;5054995;28;19923;-78
2024/01/19 05:53:15;;;;;;;;;;;;;;;;;;5039997;28;19960;-80
2024/01/19 05:55:43;;;;;;;;;;;;;;;;;;5023266;28;19925;-79
2024/01/19 05:58:08;;;;;;;;;;;;;;;;;;5027855;28;20368;-80
2024/01/19 06:00:34;;;;;;;;;;;;;;;;;;5025340;28;19921;-80
2024/01/19 06:02:59;;;;;;;;;;;;;;;;;;5027306;28;20453;-80
2024/01/19 06:05:24;;;;;;;;;;;;;;;;;;5049103;28;19916;-79
2024/01/19 06:07:49;;;;;;;;;;;;;;;;;;5010569;28;19932;-79
2024/01/19 06:10:15;;;;;;;;;;;;;;;;;;5027788;28;19913;-78
2024/01/19 06:12:41;;;;;;;;;;;;;;;;;;5008341;28;19921;-79
2024/01/19 06:15:06;;;;;;;;;;;;;;;;;;5005682;28;20282;-79
2024/01/19 06:17:31;;;;;;;;;;;;;;;;;;5023314;28;19916;-78
2024/01/19 06:20:06;;;;;;;;;;;;;;;;;;5021570;28;20295;-77
2024/01/19 06:25:48;;;;;;;;;;;;;;;;;;5022513;28;19947;-77
2024/01/19 06:28:13;;;;;;;;;;;;;;;;;;5019863;28;19917;-78
2024/01/19 06:30:39;;;;;;;;;;;;;;;;;;5038046;28;19979;-77
2024/01/19 06:33:05;;;;;;;;;;;;;;;;;;5021567;28;19917;-80
2024/01/19 06:35:30;;;;;;;;;;;;;;;;;;5023365;28;20174;-80
2024/01/19 06:37:55;;;;;;;;;;;;;;;;;;5021019;28;20288;-77
2024/01/19 06:40:21;;;;;;;;;;;;;;;;;;5023186;28;19921;-79
2024/01/19 06:42:46;;;;;;;;;;;;;;;;;;5021181;28;19921;-79
2024/01/19 06:45:11;;;;;;;;;;;;;;;;;;5022187;28;19917;-78
2024/01/19 06:47:37;;;;;;;;;;;;;;;;;;5023377;28;20011;-80
2024/01/19 06:50:03;;;;;;;;;;;;;;;;;;5024198;28;19924;-80
2024/01/19 06:52:28;;;;;;;;;;;;;;;;;;5003396;28;20015;-80
2024/01/19 06:54:54;;;;;;;;;;;;;;;;;;5024302;28;19924;-80
2024/01/19 06:57:38;;;;;;;;;;;;;;;;;;5004818;28;19975;-80
2024/01/19 07:00:03;;;;;;;;;;;;;;;;;;5006326;28;20380;-80
2024/01/19 07:02:29;;;;;;;;;;;;;;;;;;5023508;28;19921;-80
2024/01/19 07:04:54;;;;;;;;;;;;;;;;;;5006138;28;20257;-80
2024/01/19 07:07:19;;;;;;;;;;;;;;;;;;5025120;28;19935;-80
2024/01/19 07:09:45;;;;;;;;;;;;;;;;;;5023159;28;19928;-81
2024/01/19 07:12:11;;;;;;;;;;;;;;;;;;5023441;28;20321;-81
2024/01/19 07:14:37;;;;;;;;;;;;;;;;;;5021147;28;19925;-80
2024/01/19 07:17:02;;;;;;;;;;;;;;;;;;5038478;28;19932;-80
2024/01/19 07:19:27;;;;;;;;;;;;;;;;;;5024005;28;19967;-79
2024/01/19 07:21:53;;;;;;;;;;;;;;;;;;5025821;28;20012;-79
2024/01/19 07:24:19;;;;;;;;;;;;;;;;;;5022088;28;19917;-78
2024/01/19 07:26:45;;;;;;;;;;;;;;;;;;5023931;28;20012;-76
2024/01/19 07:29:10;;;;;;;;;;;;;;;;;;5026211;28;20340;-77
2024/01/19 07:31:35;;;;;;;;;;;;;;;;;;5023139;28;19917;-77
2024/01/19 07:34:01;;;;;;;;;;;;;;;;;;5022155;28;20376;-76
2024/01/19 07:36:26;;;;;;;;;;;;;;;;;;5021725;28;19921;-76
2024/01/19 07:38:52;;;;;;;;;;;;;;;;;;5024676;28;19924;-77
2024/01/19 07:41:17;;;;;;;;;;;;;;;;;;5006541;28;20696;-78
2024/01/19 07:43:42;;;;;;;;;;;;;;;;;;5025837;28;19932;-77
2024/01/19 07:46:07;;;;;;;;;;;;;;;;;;5024880;28;19917;-77
2024/01/19 07:48:33;;;;;;;;;;;;;;;;;;5038028;28;19928;-78
2024/01/19 07:50:58;;;;;;;;;;;;;;;;;;5040854;28;19952;-77
2024/01/19 07:53:23;;;;;;;;;;;;;;;;;;5023241;28;19920;-77
2024/01/19 07:55:49;;;;;;;;;;;;;;;;;;5040848;28;19931;-77
2024/01/19 07:58:14;;;;;;;;;;;;;;;;;;5006615;28;20334;-76
2024/01/19 08:00:39;;;;;;;;;;;;;;;;;;5023858;28;20257;-76
2024/01/19 08:03:05;;;;;;;;;;;;;;;;;;5024655;28;19991;-77
2024/01/19 08:05:30;;;;;;;;;;;;;;;;;;5004828;28;19939;-77
2024/01/19 08:07:56;;;;;;;;;;;;;;;;;;5026492;28;19925;-76
2024/01/19 08:10:21;;;;;;;;;;;;;;;;;;5038773;28;19917;-76
2024/01/19 08:12:46;;;;;;;;;;;;;;;;;;5022181;28;19916;-77
2024/01/19 08:15:12;;;;;;;;;;;;;;;;;;5024388;28;19921;-77
2024/01/19 08:17:37;;;;;;;;;;;;;;;;;;5021976;28;19976;-77
2024/01/19 08:20:02;;;;;;;;;;;;;;;;;;5023378;28;19975;-78
2024/01/19 08:22:28;;;;;;;;;;;;;;;;;;5004570;28;20042;-79
2024/01/19 08:24:53;;;;;;;;;;;;;;;;;;5022926;28;20056;-77
2024/01/19 08:27:18;;;;;;;;;;;;;;;;;;5021312;28;19917;-77
2024/01/19 08:29:43;;;;;;;;;;;;;;;;;;5038297;28;20011;-77
2024/01/19 08:32:09;;;;;;;;;;;;;;;;;;5023303;28;19922;-77
2024/01/19 08:34:34;;;;;;;;;;;;;;;;;;5004026;28;20414;-78
2024/01/19 08:36:59;;;;;;;;;;;;;;;;;;5025601;28;19921;-76
2024/01/19 08:39:25;;;;;;;;;;;;;;;;;;5007338;28;20390;-76
2024/01/19 08:45:07;;;;;;;;;;;;;;;;;;5020817;28;20083;-79
2024/01/19 08:47:32;;;;;;;;;;;;;;;;;;5024121;28;19920;-77
2024/01/19 08:49:59;;;;;;;;;;;;;;;;;;5025340;28;19925;-77
2024/01/19 08:52:24;;;;;;;;;;;;;;;;;;5026602;28;19917;-76
2024/01/19 08:54:49;;;;;;;;;;;;;;;;;;5024048;28;19932;-79
2024/01/19 08:57:15;;;;;;;;;;;;;;;;;;5022265;28;20557;-77
2024/01/19 08:59:40;;;;;;;;;;;;;;;;;;5039759;28;20917;-76
2024/01/19 09:02:05;;;;;;;;;;;;;;;;;;5041511;28;19921;-77
2024/01/19 09:04:31;;;;;;;;;;;;;;;;;;5023982;28;20187;-77
2024/01/19 09:06:57;;;;;;;;;;;;;;;;;;5034879;28;20140;-77
2024/01/19 09:09:22;;;;;;;;;;;;;;;;;;5024139;28;19917;-76
2024/01/19 09:11:48;;;;;;;;;;;;;;;;;;5023153;28;21513;-75
2024/01/19 09:17:30;;;;;;;;;;;;;;;;;;5022245;28;20063;-77
2024/01/19 09:19:55;;;;;;;;;;;;;;;;;;5023454;28;21560;-77
2024/01/19 09:22:22;;;;;;;;;;;;;;;;;;5038547;28;19924;-75
2024/01/19 09:24:47;;;;;;;;;;;;;;;;;;5023951;28;19943;-75
2024/01/19 09:27:12;;;;;;;;;;;;;;;;;;5021644;28;19920;-76
2024/01/19 09:29:38;;;;;;;;;;;;;;;;;;5004779;28;20273;-76
2024/01/19 09:32:03;;;;;;;;;;;;;;;;;;5005206;28;20301;-76
2024/01/19 09:34:28;;;;;;;;;;;;;;;;;;5021996;28;20287;-76
2024/01/19 09:36:53;;;;;;;;;;;;;;;;;;5019117;28;20269;-76
2024/01/19 09:39:21;;;;;;;;;;;;;;;;;;5022549;28;20263;-76
2024/01/19 09:41:46;;;;;;;;;;;;;;;;;;5020936;28;19921;-75
2024/01/19 09:44:12;;;;;;;;;;;;;;;;;;5022011;28;19920;-76
2024/01/19 09:46:37;;;;;;;;;;;;;;;;;;5019609;28;20419;-75
2024/01/19 09:49:02;;;;;;;;;;;;;;;;;;5004460;28;19916;-75
2024/01/19 09:51:27;;;;;;;;;;;;;;;;;;5022435;28;19916;-77
2024/01/19 09:53:53;;;;;;;;;;;;;;;;;;5021436;28;19948;-77
2024/01/19 09:56:18;;;;;;;;;;;;;;;;;;5019356;28;20380;-76
2024/01/19 09:58:43;;;;;;;;;;;;;;;;;;5020208;28;19917;-76
2024/01/19 10:01:09;;;;;;;;;;;;;;;;;;5019738;28;19968;-76
2024/01/19 10:03:34;;;;;;;;;;;;;;;;;;5023766;28;20234;-76
2024/01/19 10:05:59;;;;;;;;;;;;;;;;;;5025672;28;20035;-76
2024/01/19 10:08:25;;;;;;;;;;;;;;;;;;5025977;28;19921;-78
2024/01/19 10:10:50;;;;;;;;;;;;;;;;;;5007800;28;20059;-78
2024/01/19 10:13:16;;;;;;;;;;;;;;;;;;5024389;28;20066;-78
2024/01/19 10:15:42;;;;;;;;;;;;;;;;;;5025771;28;20328;-77
2024/01/19 10:18:07;;;;;;;;;;;;;;;;;;5040390;28;19924;-77
2024/01/19 10:20:33;;;;;;;;;;;;;;;;;;5008189;28;20345;-77
2024/01/19 10:22:59;;;;;;;;;;;;;;;;;;5025867;28;19924;-77
2024/01/19 10:25:24;;;;;;;;;;;;;;;;;;5025358;28;19943;-78
2024/01/19 10:27:51;;;;;;;;;;;;;;;;;;5038007;28;19921;-77
2024/01/19 10:30:16;;;;;;;;;;;;;;;;;;5023276;28;20332;-72
2024/01/19 10:32:45;;;;;;;;;;;;;;;;;;5022270;28;19928;-77
2024/01/19 10:35:10;;;;;;;;;;;;;;;;;;5022369;28;19979;-77
2024/01/19 10:37:36;;;;;;;;;;;;;;;;;;5022063;28;19920;-78
2024/01/19 10:40:01;;;;;;;;;;;;;;;;;;5020309;28;19952;-76
2024/01/19 10:42:26;;;;;;;;;;;;;;;;;;5039209;28;19921;-77
2024/01/19 10:44:51;;;;;;;;;;;;;;;;;;5035903;28;19917;-77
2024/01/19 10:47:17;;;;;;;;;;;;;;;;;;5038769;28;19914;-78
2024/01/19 10:49:42;;;;;;;;;;;;;;;;;;5019852;28;20109;-77
2024/01/19 10:52:08;;;;;;;;;;;;;;;;;;5022302;28;19991;-76
2024/01/19 10:54:33;;;;;;;;;;;;;;;;;;5021324;28;19947;-76
2024/01/19 10:56:59;;;;;;;;;;;;;;;;;;5018866;28;19970;-75
2024/01/19 10:59:24;;;;;;;;;;;;;;;;;;5021606;28;20015;-75
2024/01/19 11:01:50;;;;;;;;;;;;;;;;;;5022106;28;19920;-77
2024/01/19 11:04:15;;;;;;;;;;;;;;;;;;5027530;28;19967;-76
2024/01/19 11:06:40;;;;;;;;;;;;;;;;;;5022740;28;19916;-76
2024/01/19 11:09:06;;;;;;;;;;;;;;;;;;5010744;28;19913;-77
2024/01/19 11:11:31;;;;;;;;;;;;;;;;;;5027123;28;20495;-72
2024/01/19 11:13:56;;;;;;;;;;;;;;;;;;5041222;28;19916;-76
2024/01/19 11:16:22;;;;;;;;;;;;;;;;;;5025353;28;19921;-78
2024/01/19 11:22:04;;;;;;;;;;;;;;;;;;5025977;28;19971;-79
2024/01/19 11:24:29;;;;;;;;;;;;;;;;;;5022799;28;20316;-77
2024/01/19 11:26:54;;;;;;;;;;;;;;;;;;5024114;28;20391;-77
2024/01/19 11:29:20;;;;;;;;;;;;;;;;;;5024158;28;19921;-76
2024/01/19 11:31:45;;;;;;;;;;;;;;;;;;5040013;28;19928;-77
2024/01/19 11:34:10;;;;;;;;;;;;;;;;;;5026549;28;20284;-78
2024/01/19 11:36:39;;;;;;;;;;;;;;;;;;5010136;28;19916;-75
2024/01/19 11:39:08;;;;;;;;;;;;;;;;;;5014811;28;20707;-77
2024/01/19 11:41:34;;;;;;;;;;;;;;;;;;5034240;28;19929;-78
2024/01/19 11:43:59;;;;;;;;;;;;;;;;;;5032404;28;19921;-76
2024/01/19 11:46:24;;;;;;;;;;;;;;;;;;5034307;28;19916;-76
2024/01/19 11:48:50;;;;;;;;;;;;;;;;;;5031685;28;20012;-76
2024/01/19 11:51:15;;;;;;;;;;;;;;;;;;5061160;28;19940;-76
2024/01/19 11:53:40;;;;;;;;;;;;;;;;;;5009656;28;19921;-75
2024/01/19 11:56:05;;;;;;;;;;;;;;;;;;5025703;28;20490;-76
2024/01/19 11:58:31;;;;;;;;;;;;;;;;;;5027844;28;19924;-75
2024/01/19 12:00:56;;;;;;;;;;;;;;;;;;5026418;28;19959;-78
2024/01/19 12:03:22;;;;;;;;;;;;;;;;;;5059824;28;19921;-78
2024/01/19 12:05:47;;;;;;;;;;;;;;;;;;5029464;28;19928;-75
2024/01/19 12:08:15;;;;;;;;;;;;;;;;;;5029455;28;20386;-72
2024/01/19 12:10:40;;;;;;;;;;;;;;;;;;5039972;28;20009;-76
2024/01/19 12:13:05;;;;;;;;;;;;;;;;;;5006736;28;19996;-78
2024/01/19 12:15:34;;;;;;;;;;;;;;;;;;5007260;28;20349;-75
2024/01/19 12:18:00;;;;;;;;;;;;;;;;;;5025872;28;19928;-75
2024/01/19 12:20:29;;;;;;;;;;;;;;;;;;5008426;28;19924;-71
2024/01/19 12:22:57;;;;;;;;;;;;;;;;;;5021501;28;19917;-70
2024/01/19 12:25:26;;;;;;;;;;;;;;;;;;5041145;28;21776;-70
2024/01/19 12:27:51;;;;;;;;;;;;;;;;;;5024579;28;19917;-69
2024/01/19 12:30:16;;;;;;;;;;;;;;;;;;5007186;28;19920;-68
2024/01/19 12:32:42;;;;;;;;;;;;;;;;;;5023430;28;20379;-69
2024/01/19 12:35:13;;;;;;;;;;;;;;;;;;5023850;28;20403;-68
2024/01/19 12:37:41;;;;;;;;;;;;;;;;;;5003404;28;20193;-70
2024/01/19 12:40:07;;;;;;;;;;;;;;;;;;5021463;28;19916;-70
2024/01/19 12:45:49;;;;;;;;;;;;;;;;;;5024690;28;20291;-71
2024/01/19 12:48:15;;;;;;;;;;;;;;;;;;5021318;28;19921;-67
2024/01/19 12:50:43;;;;;;;;;;;;;;;;;;5005328;28;19971;-69
2024/01/19 12:53:08;;;;;;;;;;;;;;;;;;5023209;28;19921;-71
2024/01/19 12:55:33;;;;;;;;;;;;;;;;;;5021982;28;20013;-69
2024/01/19 12:57:59;;;;;;;;;;;;;;;;;;5026033;28;20021;-68
2024/01/19 13:00:24;;;;;;;;;;;;;;;;;;5037908;28;19920;-69
2024/01/19 13:02:53;;;;;;;;;;;;;;;;;;5023316;28;20359;-68
2024/01/19 13:05:18;;;;;;;;;;;;;;;;;;5022391;28;20057;-68
2024/01/19 13:07:43;;;;;;;;;;;;;;;;;;5033153;28;19916;-69
2024/01/19 13:10:09;;;;;;;;;;;;;;;;;;5004853;28;19966;-68
2024/01/19 13:12:53;;;;;;;;;;;;;;;;;;5049773;28;19921;-68
2024/01/19 13:15:21;;;;;;;;;;;;;;;;;;5025158;28;20564;-68
2024/01/19 13:17:46;;;;;;;;;;;;;;;;;;5036862;28;19928;-67
2024/01/19 13:20:16;;;;;;;;;;;;;;;;;;5007638;28;19932;-69
2024/01/19 13:22:42;;;;;;;;;;;;;;;;;;5006309;28;20440;-68
2024/01/19 13:25:10;;;;;;;;;;;;;;;;;;5022475;28;20305;-70
2024/01/19 13:27:36;;;;;;;;;;;;;;;;;;5019279;28;20151;-67
2024/01/19 13:30:02;;;;;;;;;;;;;;;;;;5021436;28;19924;-67
2024/01/19 13:32:27;;;;;;;;;;;;;;;;;;5023428;28;20414;-69
2024/01/19 13:34:53;;;;;;;;;;;;;;;;;;5019100;28;19929;-67
2024/01/19 13:37:18;;;;;;;;;;;;;;;;;;5022740;28;19916;-70
2024/01/19 13:39:47;;;;;;;;;;;;;;;;;;5020301;28;19924;-69
2024/01/19 13:42:13;;;;;;;;;;;;;;;;;;5052948;28;20774;-70
2024/01/19 13:44:41;;;;;;;;;;;;;;;;;;5018934;28;19946;-69
2024/01/19 13:47:06;;;;;;;;;;;;;;;;;;5022153;28;19917;-69
2024/01/19 13:49:32;;;;;;;;;;;;;;;;;;5006126;28;19916;-68
2024/01/19 13:51:57;;;;;;;;;;;;;;;;;;5004376;28;20163;-69
2024/01/19 13:54:23;;;;;;;;;;;;;;;;;;5020072;28;20026;-69
2024/01/19 13:56:49;;;;;;;;;;;;;;;;;;5010908;28;20403;-70
2024/01/19 13:59:14;;;;;;;;;;;;;;;;;;5002912;28;19917;-71
2024/01/19 14:01:40;;;;;;;;;;;;;;;;;;5003017;28;20511;-69
2024/01/19 14:04:05;;;;;;;;;;;;;;;;;;5018596;28;19921;-73
2024/01/19 14:06:31;;;;;;;;;;;;;;;;;;5029615;28;21610;-69
2024/01/19 14:08:59;;;;;;;;;;;;;;;;;;5017293;28;20542;-68
2024/01/19 14:11:24;;;;;;;;;;;;;;;;;;5020868;28;19928;-69
2024/01/19 14:13:50;;;;;;;;;;;;;;;;;;5019100;28;19921;-68
2024/01/19 14:16:15;;;;;;;;;;;;;;;;;;5018529;28;19932;-70
2024/01/19 14:18:41;;;;;;;;;;;;;;;;;;5016872;28;19920;-70
2024/01/19 14:21:07;;;;;;;;;;;;;;;;;;5010150;28;20440;-72
2024/01/19 14:23:32;;;;;;;;;;;;;;;;;;5019143;28;19974;-70
2024/01/19 14:25:58;;;;;;;;;;;;;;;;;;5029083;28;19928;-69
2024/01/19 14:28:23;;;;;;;;;;;;;;;;;;5015260;28;19943;-72
2024/01/19 14:30:48;;;;;;;;;;;;;;;;;;5003204;28;20369;-69
2024/01/19 14:33:14;;;;;;;;;;;;;;;;;;5035102;28;20349;-68
2024/01/19 14:35:39;;;;;;;;;;;;;;;;;;5002630;28;20400;-70
2024/01/19 14:38:08;;;;;;;;;;;;;;;;;;5016833;28;19928;-69
2024/01/19 14:40:33;;;;;;;;;;;;;;;;;;5018308;28;19917;-71
2024/01/19 14:43:02;;;;;;;;;;;;;;;;;;5000384;28;20660;-70
2024/01/19 14:45:28;;;;;;;;;;;;;;;;;;5003057;28;19929;-69
2024/01/19 14:47:55;;;;;;;;;;;;;;;;;;5019449;28;19990;-72
2024/01/19 14:50:20;;;;;;;;;;;;;;;;;;5016230;28;19978;-73
2024/01/19 14:52:49;;;;;;;;;;;;;;;;;;5017578;28;19917;-70
2024/01/19 14:55:14;;;;;;;;;;;;;;;;;;5015369;28;20305;-72
2024/01/19 14:57:40;;;;;;;;;;;;;;;;;;5014910;28;20080;-73
2024/01/19 15:00:08;;;;;;;;;;;;;;;;;;5017645;28;19917;-70
2024/01/19 15:02:33;;;;;;;;;;;;;;;;;;5015999;28;19968;-70
2024/01/19 15:04:58;;;;;;;;;;;;;;;;;;5032283;28;20559;-70
2024/01/19 15:07:27;;;;;;;;;;;;;;;;;;5010000;28;21473;-70
2024/01/19 15:09:53;;;;;;;;;;;;;;;;;;5001131;28;19913;-70
2024/01/19 15:12:18;;;;;;;;;;;;;;;;;;5013483;28;19990;-74
2024/01/19 15:14:49;;;;;;;;;;;;;;;;;;5002031;28;19963;-70
2024/01/19 15:17:15;;;;;;;;;;;;;;;;;;5016517;28;19928;-71
2024/01/19 15:19:40;;;;;;;;;;;;;;;;;;5017302;28;19992;-72
2024/01/19 15:22:06;;;;;;;;;;;;;;;;;;5018248;28;20374;-71
2024/01/19 15:24:31;;;;;;;;;;;;;;;;;;5016598;28;19929;-71
2024/01/19 15:26:57;;;;;;;;;;;;;;;;;;5028958;28;19929;-71
2024/01/19 15:29:22;;;;;;;;;;;;;;;;;;5017055;28;19920;-71
2024/01/19 15:31:48;;;;;;;;;;;;;;;;;;5019000;28;19929;-72
2024/01/19 15:34:13;;;;;;;;;;;;;;;;;;5018688;28;20265;-70
2024/01/19 15:36:38;;;;;;;;;;;;;;;;;;5035124;28;19928;-71
2024/01/19 15:39:06;;;;;;;;;;;;;;;;;;5016884;28;20300;-73
2024/01/19 15:41:31;;;;;;;;;;;;;;;;;;5009276;28;19917;-74
2024/01/19 15:43:57;;;;;;;;;;;;;;;;;;5017929;28;19932;-71
2024/01/19 15:46:22;;;;;;;;;;;;;;;;;;4999325;28;19924;-72
2024/01/19 15:51:39;;;;;;;;;;;;;;;;;;5022288;28;20227;-73
2024/01/19 15:54:04;;;;;;;;;;;;;;;;;;5019674;28;20500;-73
2024/01/19 15:56:32;;;;;;;;;;;;;;;;;;4999043;28;19931;-73
2024/01/19 15:58:57;;;;;;;;;;;;;;;;;;5038675;28;20432;-75
2024/01/19 16:01:22;;;;;;;;;;;;;;;;;;5019531;28;19932;-75
2024/01/19 16:03:48;;;;;;;;;;;;;;;;;;5019345;28;19964;-78
2024/01/19 16:06:13;;;;;;;;;;;;;;;;;;5017537;28;19921;-73
2024/01/19 16:08:38;;;;;;;;;;;;;;;;;;5019427;28;20028;-76
2024/01/19 16:11:03;;;;;;;;;;;;;;;;;;5024640;28;19939;-74
2024/01/19 16:16:48;;;;;;;;;;;;;;;;;;5023057;28;19983;-73
2024/01/19 16:19:13;;;;;;;;;;;;;;;;;;5019604;28;19921;-74
2024/01/19 16:21:39;;;;;;;;;;;;;;;;;;5003365;28;19920;-73
2024/01/19 16:24:05;;;;;;;;;;;;;;;;;;5043091;28;19921;-73
2024/01/19 16:26:30;;;;;;;;;;;;;;;;;;5038487;28;19917;-73
2024/01/19 16:28:55;;;;;;;;;;;;;;;;;;5025539;28;19932;-73
2024/01/19 16:31:21;;;;;;;;;;;;;;;;;;5022077;28;20663;-71
2024/01/19 16:33:46;;;;;;;;;;;;;;;;;;5026503;28;19913;-73
2024/01/19 16:36:11;;;;;;;;;;;;;;;;;;5022129;28;19956;-75
2024/01/19 16:38:37;;;;;;;;;;;;;;;;;;5040721;28;20351;-76
2024/01/19 16:41:02;;;;;;;;;;;;;;;;;;5022278;28;19913;-74
2024/01/19 16:43:27;;;;;;;;;;;;;;;;;;5019745;28;19928;-74
2024/01/19 16:45:53;;;;;;;;;;;;;;;;;;5022613;28;19920;-76
2024/01/19 16:48:19;;;;;;;;;;;;;;;;;;5036162;28;19913;-73
2024/01/19 16:50:44;;;;;;;;;;;;;;;;;;5023021;28;19932;-74
2024/01/19 16:53:10;;;;;;;;;;;;;;;;;;5018864;28;20300;-74
2024/01/19 16:55:35;;;;;;;;;;;;;;;;;;5021014;28;20019;-74
2024/01/19 16:58:03;;;;;;;;;;;;;;;;;;5022143;28;19921;-75
2024/01/19 17:00:33;;;;;;;;;;;;;;;;;;5016356;28;20176;-73
2024/01/19 17:02:58;;;;;;;;;;;;;;;;;;5036738;28;20324;-73
2024/01/19 17:05:23;;;;;;;;;;;;;;;;;;5051722;28;19927;-73
2024/01/19 17:07:49;;;;;;;;;;;;;;;;;;5034537;28;19931;-74